Time;durP1;ratioP1;P1;durP2;ratioP2;P2;SDS_P1;SDS_P2;PMS_P1;PMS_P2;Temp;Humidity;BMP_temperature;BMP_pressure;BME280_temperature;BME280_humidity;BME280_pressure;Samples;Min_cycle;Max_cycle;Signal;HPM_P1;HPM_P2
2022/05/26 00:01:28;;;;;;;2.03;0.50;;;20.90;83.80;;;;;;5131666;27;45239;-65
2022/05/26 00:03:55;;;;;;;1.48;0.47;;;20.90;83.30;;;;;;5126206;27;45339;-65
2022/05/26 00:06:24;;;;;;;2.22;0.35;;;21.00;82.40;;;;;;5119835;27;45430;-65
2022/05/26 00:08:52;;;;;;;1.00;0.40;;;21.00;82.90;;;;;;5121285;27;46621;-65
2022/05/26 00:11:22;;;;;;;0.40;0.30;;;21.00;82.90;;;;;;5131824;27;46615;-65
2022/05/26 00:13:49;;;;;;;0.75;0.22;;;21.00;83.30;;;;;;5118828;27;45614;-65
2022/05/26 00:16:18;;;;;;;0.75;0.30;;;20.90;83.10;;;;;;5121899;27;45251;-65
2022/05/26 00:18:47;;;;;;;0.82;0.32;;;21.00;82.70;;;;;;5121631;27;45767;-65
2022/05/26 00:21:15;;;;;;;0.60;0.25;;;20.90;82.80;;;;;;5125622;27;45233;-65
2022/05/26 00:23:42;;;;;;;0.70;0.30;;;21.00;83.10;;;;;;5128687;27;45224;-65
2022/05/26 00:26:09;;;;;;;1.10;0.40;;;21.00;82.90;;;;;;5122613;27;45313;-65
2022/05/26 00:28:36;;;;;;;0.82;0.47;;;21.00;82.60;;;;;;5120989;27;45464;-65
2022/05/26 00:31:03;;;;;;;1.85;0.50;;;20.90;82.80;;;;;;5126632;27;46622;-65
2022/05/26 00:33:30;;;;;;;0.73;0.38;;;20.90;83.10;;;;;;5122982;27;45211;-65
2022/05/26 00:36:03;;;;;;;1.85;0.50;;;20.90;83.00;;;;;;5127277;27;45472;-65
2022/05/26 00:38:30;;;;;;;1.77;0.32;;;21.00;84.10;;;;;;5122716;27;45202;-65
2022/05/26 00:41:02;;;;;;;0.63;0.30;;;20.90;82.90;;;;;;5125176;27;45192;-65
2022/05/26 00:43:29;;;;;;;0.95;0.32;;;20.90;83.20;;;;;;5114080;27;45194;-65
2022/05/26 00:46:01;;;;;;;2.75;0.40;;;20.90;82.90;;;;;;5124343;27;45391;-65
2022/05/26 00:48:35;;;;;;;0.88;0.30;;;20.90;84.10;;;;;;5122581;27;45223;-65
2022/05/26 00:51:05;;;;;;;1.75;0.40;;;20.90;83.10;;;;;;5127145;27;47907;-65
2022/05/26 00:53:41;;;;;;;0.68;0.20;;;20.90;83.10;;;;;;5124163;27;45338;-65
2022/05/26 00:56:12;;;;;;;0.40;0.17;;;20.90;83.20;;;;;;5117643;27;45217;-65
2022/05/26 00:58:43;;;;;;;0.70;0.30;;;20.90;82.80;;;;;;5110292;27;46421;-65
2022/05/26 01:01:11;;;;;;;1.05;0.40;;;20.90;83.30;;;;;;5118080;27;48076;-65
2022/05/26 01:03:42;;;;;;;1.98;0.43;;;20.90;83.10;;;;;;5118554;27;46405;-65
2022/05/26 01:06:14;;;;;;;0.30;0.20;;;20.90;83.00;;;;;;5116314;27;45887;-65
2022/05/26 01:08:47;;;;;;;0.40;0.40;;;20.90;82.70;;;;;;5114552;27;45239;-65
2022/05/26 01:11:14;;;;;;;1.02;0.40;;;20.90;82.90;;;;;;5120562;27;45385;-65
2022/05/26 01:13:45;;;;;;;1.20;0.50;;;20.90;82.70;;;;;;5117981;27;45242;-65
2022/05/26 01:16:33;;;;;;;1.27;0.30;;;20.90;82.40;;;;;;5122133;27;45225;-65
2022/05/26 01:19:20;;;;;;;2.03;0.60;;;21.00;82.20;;;;;;5117611;27;45136;-65
2022/05/26 01:21:55;;;;;;;0.32;0.30;;;21.00;82.80;;;;;;5124193;27;45324;-65
2022/05/26 01:25:02;;;;;;;1.05;0.40;;;21.00;82.20;;;;;;5126678;27;45398;-65
2022/05/26 01:27:34;;;;;;;1.10;0.35;;;20.90;82.60;;;;;;5116953;27;45217;-65
2022/05/26 01:30:24;;;;;;;1.10;0.40;;;20.90;82.50;;;;;;5123535;27;45355;-65
2022/05/26 01:33:11;;;;;;;1.08;0.30;;;21.00;82.70;;;;;;5121847;27;45369;-65
2022/05/26 01:35:46;;;;;;;1.30;0.50;;;21.00;82.60;;;;;;5121876;27;45156;-65
2022/05/26 01:38:25;;;;;;;1.48;0.47;;;20.90;82.50;;;;;;5126494;27;45416;-65
2022/05/26 01:40:59;;;;;;;1.15;0.38;;;20.90;82.60;;;;;;5121588;27;45908;-65
2022/05/26 01:43:33;;;;;;;1.20;0.30;;;20.90;82.40;;;;;;5117729;27;47110;-65
2022/05/26 01:46:05;;;;;;;0.85;0.73;;;20.90;82.60;;;;;;5112600;27;45227;-65
2022/05/26 01:48:38;;;;;;;1.30;0.25;;;20.90;82.60;;;;;;5126872;27;45183;-65
2022/05/26 01:51:13;;;;;;;1.40;0.38;;;20.90;82.70;;;;;;5125644;27;45310;-65
2022/05/26 01:53:47;;;;;;;1.25;0.35;;;20.90;82.60;;;;;;5117349;27;47497;-65
2022/05/26 01:56:22;;;;;;;0.28;0.25;;;20.90;82.60;;;;;;5121678;27;45233;-65
2022/05/26 01:58:54;;;;;;;1.35;0.40;;;20.90;82.90;;;;;;5121094;27;45221;-65
2022/05/26 02:01:26;;;;;;;1.75;0.38;;;20.90;82.90;;;;;;5125613;27;45360;-65
2022/05/26 02:03:56;;;;;;;0.68;0.40;;;20.90;82.70;;;;;;5125176;27;46254;-65
2022/05/26 02:06:28;;;;;;;1.60;0.40;;;20.90;82.60;;;;;;5113125;27;45415;-65
2022/05/26 02:09:00;;;;;;;0.63;0.30;;;20.90;82.60;;;;;;5125016;27;45492;-65
2022/05/26 02:11:27;;;;;;;0.52;0.20;;;21.00;82.70;;;;;;5122372;27;45459;-65
2022/05/26 02:13:59;;;;;;;1.10;0.30;;;21.00;82.50;;;;;;5127847;27;48610;-65
2022/05/26 02:16:33;;;;;;;0.32;0.30;;;20.90;82.50;;;;;;5120698;27;45385;-65
2022/05/26 02:19:08;;;;;;;1.00;0.40;;;21.00;82.30;;;;;;5124539;27;45231;-65
2022/05/26 02:21:40;;;;;;;1.05;0.40;;;20.90;82.60;;;;;;5118984;27;45267;-65
2022/05/26 02:24:11;;;;;;;0.30;0.30;;;21.00;82.60;;;;;;5122321;27;45225;-65
2022/05/26 02:26:38;;;;;;;0.52;0.43;;;21.00;81.90;;;;;;5120326;27;45522;-65
2022/05/26 02:31:51;;;;;;;1.83;0.45;;;20.90;82.40;;;;;;5124272;27;45505;-65
2022/05/26 02:34:22;;;;;;;1.25;0.60;;;20.90;82.70;;;;;;5112783;27;45427;-65
2022/05/26 02:36:53;;;;;;;0.40;0.20;;;20.90;82.40;;;;;;5112137;27;45481;-66
2022/05/26 02:39:20;;;;;;;1.20;0.30;;;20.90;82.10;;;;;;5122456;27;45202;-65
2022/05/26 02:41:47;;;;;;;0.32;0.30;;;20.90;82.50;;;;;;5119747;27;45177;-65
2022/05/26 02:44:14;;;;;;;1.35;0.50;;;20.90;82.80;;;;;;5119977;27;45209;-65
2022/05/26 02:47:06;;;;;;;1.20;0.40;;;20.90;82.60;;;;;;5119449;27;45197;-65
2022/05/26 02:49:55;;;;;;;1.23;0.57;;;20.90;82.90;;;;;;5124390;27;45211;-65
2022/05/26 02:52:31;;;;;;;0.50;0.50;;;20.90;82.90;;;;;;5120465;27;45246;-65
2022/05/26 02:55:12;;;;;;;1.30;0.50;;;20.90;82.60;;;;;;5115086;27;48864;-65
2022/05/26 02:57:44;;;;;;;0.80;0.32;;;20.90;82.90;;;;;;5117731;27;45183;-65
2022/05/26 03:00:16;;;;;;;0.77;0.50;;;20.90;82.90;;;;;;5116986;27;45445;-65
2022/05/26 03:02:51;;;;;;;3.80;0.50;;;20.90;82.80;;;;;;5122508;27;45348;-65
2022/05/26 03:05:23;;;;;;;0.82;0.40;;;20.90;82.20;;;;;;5122979;27;47021;-65
2022/05/26 03:07:54;;;;;;;0.52;0.30;;;20.90;82.60;;;;;;5123902;27;45152;-65
2022/05/26 03:10:25;;;;;;;1.00;0.43;;;20.90;82.60;;;;;;5122097;27;45483;-65
2022/05/26 03:12:54;;;;;;;1.88;0.35;;;20.90;82.20;;;;;;5123246;27;45384;-65
2022/05/26 03:15:22;;;;;;;0.85;0.55;;;20.90;81.70;;;;;;5124823;27;46304;-65
2022/05/26 03:17:49;;;;;;;0.90;0.40;;;20.90;82.20;;;;;;5121873;27;45389;-66
2022/05/26 03:20:16;;;;;;;0.90;0.40;;;21.00;82.40;;;;;;5122716;27;45155;-65
2022/05/26 03:22:44;;;;;;;1.48;0.77;;;20.90;82.30;;;;;;5127006;27;45160;-65
2022/05/26 03:25:12;;;;;;;1.80;0.65;;;20.90;82.20;;;;;;5118482;27;45245;-65
2022/05/26 03:27:39;;;;;;;1.67;0.52;;;20.90;82.20;;;;;;5117892;27;45283;-65
2022/05/26 03:30:07;;;;;;;2.10;0.70;;;20.90;82.30;;;;;;5119990;27;45607;-65
2022/05/26 03:32:34;;;;;;;3.08;0.40;;;20.90;82.30;;;;;;5126350;27;45874;-65
2022/05/26 03:40:52;;;;;;;1.52;0.63;;;20.90;82.30;;;;;;5117761;27;45249;-65
2022/05/26 03:43:20;;;;;;;1.92;0.70;;;20.90;81.70;;;;;;5124608;27;45330;-65
2022/05/26 03:45:47;;;;;;;1.90;0.68;;;20.90;82.50;;;;;;5118434;27;46621;-65
2022/05/26 03:48:14;;;;;;;1.58;0.68;;;20.90;82.30;;;;;;5126230;27;45322;-65
2022/05/26 03:50:40;;;;;;;2.10;0.73;;;20.90;82.00;;;;;;5123727;27;45337;-65
2022/05/26 03:53:10;;;;;;;2.45;0.70;;;20.90;82.50;;;;;;5121309;27;45529;-65
2022/05/26 03:55:37;;;;;;;1.13;0.55;;;20.90;82.70;;;;;;5116770;27;45968;-65
2022/05/26 03:58:04;;;;;;;4.53;0.90;;;20.90;82.80;;;;;;5114769;27;45254;-65
2022/05/26 04:00:31;;;;;;;4.55;0.85;;;20.90;82.70;;;;;;5123536;27;45280;-65
2022/05/26 04:02:59;;;;;;;1.60;0.65;;;20.90;82.50;;;;;;5122631;27;45265;-65
2022/05/26 04:05:26;;;;;;;2.90;1.00;;;20.90;82.40;;;;;;5119524;27;47625;-66
2022/05/26 04:07:53;;;;;;;2.50;0.70;;;20.90;82.40;;;;;;5124008;27;45229;-65
2022/05/26 04:10:21;;;;;;;1.88;0.73;;;20.90;82.40;;;;;;5119280;27;45250;-65
2022/05/26 04:12:48;;;;;;;3.85;1.00;;;20.90;82.40;;;;;;5130273;27;45364;-65
2022/05/26 04:17:50;;;;;;;2.78;1.10;;;20.90;82.40;;;;;;5226830;22;45202;-64
2022/05/26 04:20:20;;;;;;;2.95;0.98;;;20.90;82.40;;;;;;5128078;27;45264;-64
2022/05/26 04:22:47;;;;;;;4.43;0.85;;;20.90;82.10;;;;;;5124126;27;45345;-64
2022/05/26 04:25:14;;;;;;;2.63;1.08;;;20.90;82.30;;;;;;5129499;27;46008;-64
2022/05/26 04:27:42;;;;;;;2.97;0.80;;;20.90;82.60;;;;;;5128651;27;45178;-64
2022/05/26 04:30:12;;;;;;;4.53;0.90;;;20.90;82.60;;;;;;5122624;27;45258;-64
2022/05/26 04:32:40;;;;;;;3.42;1.00;;;20.90;82.80;;;;;;5127335;27;45196;-65
2022/05/26 04:35:09;;;;;;;3.03;1.00;;;20.90;83.80;;;;;;5122871;27;47665;-64
2022/05/26 04:37:36;;;;;;;3.58;1.00;;;20.90;82.80;;;;;;5128809;27;46163;-64
2022/05/26 04:40:04;;;;;;;2.10;0.90;;;20.90;82.90;;;;;;5119092;27;45332;-64
2022/05/26 04:42:31;;;;;;;5.40;1.10;;;20.90;82.80;;;;;;5130999;27;45258;-64
2022/05/26 04:45:00;;;;;;;2.13;0.90;;;20.90;83.10;;;;;;5127994;27;46168;-64
2022/05/26 04:47:27;;;;;;;4.70;1.50;;;20.90;83.10;;;;;;5128089;27;45198;-64
2022/05/26 04:49:54;;;;;;;2.30;1.05;;;20.90;82.90;;;;;;5127123;27;45183;-64
2022/05/26 04:52:23;;;;;;;2.45;1.15;;;20.90;82.80;;;;;;5128102;27;45456;-64
2022/05/26 04:54:52;;;;;;;2.35;0.95;;;20.90;83.10;;;;;;5125842;27;46648;-64
2022/05/26 04:57:20;;;;;;;2.55;1.00;;;20.90;82.90;;;;;;5125381;27;45200;-64
2022/05/26 04:59:47;;;;;;;3.28;1.02;;;20.90;83.10;;;;;;5124081;27;45319;-64
2022/05/26 05:02:17;;;;;;;2.40;1.00;;;20.90;83.10;;;;;;5128992;27;45416;-64
2022/05/26 05:04:46;;;;;;;2.60;0.90;;;20.90;83.10;;;;;;5131006;27;45306;-64
2022/05/26 05:07:15;;;;;;;3.55;1.00;;;20.90;82.90;;;;;;5127592;27;45249;-64
2022/05/26 05:09:42;;;;;;;2.30;1.02;;;20.90;83.20;;;;;;5118509;27;45178;-64
2022/05/26 05:12:13;;;;;;;3.47;1.08;;;20.90;83.10;;;;;;5124854;27;45476;-64
2022/05/26 05:14:43;;;;;;;3.55;0.95;;;20.90;83.20;;;;;;5120464;27;46689;-64
2022/05/26 05:17:10;;;;;;;2.40;1.02;;;20.90;83.20;;;;;;5125761;27;45230;-64
2022/05/26 05:19:39;;;;;;;3.22;1.17;;;20.90;83.10;;;;;;5126484;27;45214;-64
2022/05/26 05:22:09;;;;;;;4.20;1.25;;;20.90;83.10;;;;;;5124343;27;45313;-64
2022/05/26 05:24:40;;;;;;;3.15;1.10;;;20.90;83.10;;;;;;5124760;27;47194;-64
2022/05/26 05:27:14;;;;;;;2.80;1.10;;;20.90;83.10;;;;;;5126136;27;45717;-64
2022/05/26 05:29:42;;;;;;;7.47;1.50;;;20.90;83.00;;;;;;5125273;27;45299;-64
2022/05/26 05:32:16;;;;;;;5.53;1.30;;;20.90;83.00;;;;;;5126803;27;45359;-64
2022/05/26 05:34:47;;;;;;;4.35;1.27;;;20.90;83.30;;;;;;5126727;27;47100;-64
2022/05/26 05:37:14;;;;;;;4.20;1.30;;;20.90;83.10;;;;;;5126310;27;45424;-64
2022/05/26 05:39:41;;;;;;;5.18;1.50;;;20.90;83.30;;;;;;5123158;27;45660;-64
2022/05/26 05:42:09;;;;;;;2.22;1.10;;;20.90;83.00;;;;;;5121952;27;45298;-64
2022/05/26 05:44:36;;;;;;;2.35;1.00;;;20.90;83.10;;;;;;5129522;27;48159;-64
2022/05/26 05:47:04;;;;;;;3.75;1.20;;;20.90;83.00;;;;;;5125077;27;46004;-64
2022/05/26 05:49:34;;;;;;;4.90;1.48;;;20.90;83.10;;;;;;5124421;27;45238;-64
2022/05/26 05:52:09;;;;;;;3.70;1.05;;;20.90;82.90;;;;;;5126143;27;45340;-64
2022/05/26 05:54:36;;;;;;;5.00;1.67;;;20.90;83.10;;;;;;5128882;27;47388;-64
2022/05/26 05:57:03;;;;;;;5.10;1.80;;;20.90;83.20;;;;;;5128900;27;45459;-64
2022/05/26 05:59:30;;;;;;;5.20;1.70;;;20.90;83.20;;;;;;5127136;27;45168;-64
2022/05/26 06:01:56;;;;;;;3.10;1.60;;;20.90;83.10;;;;;;5125801;27;45331;-64
2022/05/26 06:04:23;;;;;;;1.80;1.15;;;20.90;83.10;;;;;;5119908;27;45203;-64
2022/05/26 06:06:51;;;;;;;4.47;1.50;;;20.90;83.00;;;;;;5122726;27;45296;-64
2022/05/26 06:09:20;;;;;;;4.47;2.00;;;20.90;82.90;;;;;;5125258;27;45367;-64
2022/05/26 06:11:48;;;;;;;4.60;1.60;;;21.00;83.00;;;;;;5123491;27;45312;-64
2022/05/26 06:14:15;;;;;;;3.33;1.50;;;20.90;82.80;;;;;;5127123;27;47200;-64
2022/05/26 06:16:42;;;;;;;6.35;2.35;;;20.90;82.90;;;;;;5125334;27;45287;-64
2022/05/26 06:19:09;;;;;;;3.67;1.63;;;21.00;83.00;;;;;;5118254;27;46259;-64
2022/05/26 06:21:38;;;;;;;3.80;1.60;;;20.90;82.70;;;;;;5123811;27;45307;-64
2022/05/26 06:24:06;;;;;;;3.38;1.40;;;20.90;82.90;;;;;;5126993;27;45452;-64
2022/05/26 06:26:34;;;;;;;4.30;1.80;;;21.00;82.60;;;;;;5128459;27;45359;-64
2022/05/26 06:37:13;;;;;;;2.33;1.30;;;20.90;82.90;;;;;;5124948;27;45215;-64
2022/05/26 06:37:16;;;;;;;1.83;1.15;;;20.90;84.00;;;;;;5123079;27;45206;-65
2022/05/26 06:39:45;;;;;;;3.67;1.88;;;20.90;82.60;;;;;;5123222;27;45174;-64
2022/05/26 06:42:13;;;;;;;3.25;1.40;;;20.90;82.90;;;;;;5123276;27;45513;-64
2022/05/26 06:44:42;;;;;;;3.10;1.58;;;20.90;82.80;;;;;;5124063;27;45480;-64
2022/05/26 06:47:11;;;;;;;5.32;1.80;;;20.90;82.70;;;;;;5127237;27;45512;-64
2022/05/26 06:49:40;;;;;;;5.22;1.70;;;20.90;82.80;;;;;;5112979;27;45253;-64
2022/05/26 06:52:08;;;;;;;4.22;1.85;;;20.90;82.60;;;;;;5127431;27;45332;-64
2022/05/26 06:54:38;;;;;;;3.90;1.70;;;20.90;82.60;;;;;;5124638;27;45981;-64
2022/05/26 06:57:06;;;;;;;2.58;1.48;;;20.90;82.90;;;;;;5122450;27;45340;-64
2022/05/26 06:59:35;;;;;;;3.88;1.90;;;20.90;82.60;;;;;;5117894;27;45315;-65
2022/05/26 07:02:02;;;;;;;4.40;1.50;;;20.90;82.70;;;;;;5123938;27;45489;-64
2022/05/26 07:04:29;;;;;;;4.35;1.63;;;20.90;82.50;;;;;;5121606;27;46540;-64
2022/05/26 07:06:56;;;;;;;4.68;1.77;;;21.00;82.40;;;;;;5126817;27;45152;-64
2022/05/26 07:09:24;;;;;;;4.32;1.70;;;20.90;82.40;;;;;;5124267;27;45139;-64
2022/05/26 07:11:51;;;;;;;4.43;1.80;;;20.90;82.20;;;;;;5126258;27;45419;-64
2022/05/26 07:14:19;;;;;;;4.97;1.88;;;21.00;82.20;;;;;;5121360;27;45556;-64
2022/05/26 07:16:47;;;;;;;3.97;1.33;;;21.00;82.20;;;;;;5116565;27;45877;-64
2022/05/26 07:19:15;;;;;;;5.22;1.92;;;20.90;82.20;;;;;;5120357;27;45559;-64
2022/05/26 07:21:45;;;;;;;6.45;2.00;;;21.00;82.30;;;;;;5123602;27;45503;-64
2022/05/26 07:24:12;;;;;;;4.90;1.75;;;21.00;82.30;;;;;;5125271;27;45255;-64
2022/05/26 07:26:39;;;;;;;5.25;2.30;;;21.00;82.20;;;;;;5123956;27;45230;-64
2022/05/26 07:29:06;;;;;;;5.35;2.17;;;21.00;82.10;;;;;;5119492;27;45186;-64
2022/05/26 07:31:33;;;;;;;4.15;1.85;;;21.00;82.10;;;;;;5126631;27;45233;-64
2022/05/26 07:34:01;;;;;;;5.57;2.10;;;21.00;82.50;;;;;;5123873;27;46564;-64
2022/05/26 07:42:02;;;;;;;4.70;1.85;;;21.00;81.70;;;;;;5123084;27;45226;-64
2022/05/26 07:44:32;;;;;;;4.68;2.05;;;21.00;81.90;;;;;;5129501;27;45279;-64
2022/05/26 07:46:58;;;;;;;7.13;1.88;;;21.00;81.50;;;;;;5122746;27;45318;-64
2022/05/26 07:49:27;;;;;;;3.28;1.50;;;20.90;81.30;;;;;;5119665;27;45203;-64
2022/05/26 07:51:53;;;;;;;4.70;2.00;;;21.00;81.50;;;;;;5130741;27;45476;-64
2022/05/26 07:54:20;;;;;;;6.38;1.90;;;20.90;81.40;;;;;;5130351;27;46623;-64
2022/05/26 07:56:47;;;;;;;4.45;1.92;;;21.00;81.60;;;;;;5127357;27;45381;-64
2022/05/26 07:59:14;;;;;;;5.75;1.73;;;21.00;82.20;;;;;;5128785;27;45274;-64
2022/05/26 08:01:40;;;;;;;3.97;1.70;;;21.00;82.30;;;;;;5131375;27;45220;-64
2022/05/26 08:04:08;;;;;;;4.05;1.38;;;21.00;82.30;;;;;;5129198;27;45417;-64
2022/05/26 08:06:37;;;;;;;4.15;1.58;;;21.00;82.20;;;;;;5126794;27;45534;-64
2022/05/26 08:09:04;;;;;;;2.53;1.33;;;21.00;82.40;;;;;;5124049;27;45411;-64
2022/05/26 08:11:31;;;;;;;2.83;1.20;;;21.00;82.30;;;;;;5120995;27;45395;-64
2022/05/26 08:13:58;;;;;;;3.42;1.52;;;21.00;82.30;;;;;;5130310;27;45705;-64
2022/05/26 08:16:25;;;;;;;4.35;1.48;;;21.00;82.20;;;;;;5128695;27;45740;-64
2022/05/26 08:18:51;;;;;;;3.90;1.45;;;21.10;82.20;;;;;;5128566;27;45297;-64
2022/05/26 08:21:18;;;;;;;3.28;1.50;;;21.10;82.10;;;;;;5128061;27;45681;-64
2022/05/26 08:23:47;;;;;;;5.72;1.50;;;21.10;82.10;;;;;;5126260;27;46591;-64
2022/05/26 08:26:14;;;;;;;3.17;1.33;;;21.10;82.00;;;;;;5125987;27;45347;-64
2022/05/26 08:28:43;;;;;;;6.43;1.60;;;21.10;82.20;;;;;;5123483;27;45385;-64
2022/05/26 08:31:10;;;;;;;2.65;1.58;;;21.10;82.20;;;;;;5123680;27;45171;-64
2022/05/26 08:33:37;;;;;;;4.95;1.50;;;21.10;81.90;;;;;;5120324;27;46377;-64
2022/05/26 08:36:06;;;;;;;6.25;1.90;;;21.10;81.90;;;;;;5129460;27;45367;-64
2022/05/26 08:38:33;;;;;;;2.15;1.48;;;21.00;82.00;;;;;;5129502;27;45193;-64
2022/05/26 08:41:02;;;;;;;3.25;1.45;;;21.10;82.10;;;;;;5131692;27;45488;-64
2022/05/26 08:43:36;;;;;;;2.95;1.35;;;21.00;81.90;;;;;;5127520;27;45214;-64
2022/05/26 08:46:07;;;;;;;4.07;1.35;;;21.10;82.00;;;;;;5131112;27;45520;-64
2022/05/26 08:48:48;;;;;;;3.45;1.38;;;21.10;81.90;;;;;;5127730;27;45127;-65
2022/05/26 08:51:23;;;;;;;5.60;1.42;;;21.00;81.90;;;;;;5130529;27;45252;-65
2022/05/26 08:53:52;;;;;;;3.92;1.40;;;21.00;81.80;;;;;;5130172;27;47349;-64
2022/05/26 08:56:24;;;;;;;2.45;1.10;;;21.00;81.80;;;;;;5126351;27;45355;-64
2022/05/26 08:58:57;;;;;;;4.40;1.38;;;21.10;82.00;;;;;;5128449;27;45322;-64
2022/05/26 09:01:28;;;;;;;5.45;1.40;;;21.10;82.10;;;;;;5131317;27;45286;-64
2022/05/26 09:03:54;;;;;;;1.95;1.20;;;21.10;82.00;;;;;;5129482;27;47286;-64
2022/05/26 09:06:22;;;;;;;2.53;1.10;;;21.10;82.90;;;;;;5122569;27;45579;-64
2022/05/26 09:14:26;;;;;;;4.88;1.33;;;21.10;81.50;;;;;;5127435;27;45405;-64
2022/05/26 09:16:58;;;;;;;3.42;1.38;;;21.10;81.40;;;;;;5118980;27;45350;-64
2022/05/26 09:19:30;;;;;;;3.28;1.60;;;21.10;81.50;;;;;;5117623;27;45289;-64
2022/05/26 09:21:57;;;;;;;4.78;1.45;;;21.10;81.40;;;;;;5124864;27;45296;-64
2022/05/26 09:24:31;;;;;;;3.45;1.30;;;21.10;81.50;;;;;;5130494;27;47042;-64
2022/05/26 09:27:02;;;;;;;4.35;1.65;;;21.10;81.50;;;;;;5114215;27;45247;-64
2022/05/26 09:29:30;;;;;;;5.80;1.58;;;21.10;81.60;;;;;;5108386;27;45166;-64
2022/05/26 09:31:59;;;;;;;2.38;1.33;;;21.10;81.60;;;;;;5110121;27;45393;-65
2022/05/26 09:34:28;;;;;;;4.88;1.40;;;21.10;81.60;;;;;;5114718;27;47868;-64
2022/05/26 09:36:59;;;;;;;2.75;1.17;;;21.10;81.60;;;;;;5128358;27;45586;-64
2022/05/26 09:39:34;;;;;;;3.60;1.00;;;21.10;81.70;;;;;;5129689;27;45538;-64
2022/05/26 09:42:04;;;;;;;5.63;1.58;;;21.10;81.70;;;;;;5131338;27;45322;-64
2022/05/26 09:44:49;;;;;;;4.45;1.10;;;21.10;81.60;;;;;;5129114;27;46278;-64
2022/05/26 09:47:24;;;;;;;3.97;1.42;;;21.10;81.60;;;;;;5109299;27;45195;-64
2022/05/26 09:49:55;;;;;;;5.97;1.50;;;21.10;81.50;;;;;;5110355;27;45491;-62
2022/05/26 09:52:26;;;;;;;4.07;1.20;;;21.10;81.50;;;;;;5128403;27;45597;-64
2022/05/26 09:55:11;;;;;;;2.70;1.10;;;21.10;81.60;;;;;;5118537;27;46371;-64
2022/05/26 09:57:39;;;;;;;3.45;1.40;;;21.10;81.60;;;;;;5123223;27;46472;-66
2022/05/26 10:00:29;;;;;;;5.18;1.35;;;21.00;81.50;;;;;;5124726;27;45369;-64
2022/05/26 10:02:57;;;;;;;4.45;1.17;;;21.10;81.50;;;;;;5124965;27;45352;-64
2022/05/26 10:05:33;;;;;;;2.63;1.00;;;21.10;81.30;;;;;;5126473;27;46415;-64
2022/05/26 10:08:10;;;;;;;4.05;1.20;;;21.10;81.20;;;;;;5126620;27;45563;-64
2022/05/26 10:10:41;;;;;;;3.78;1.23;;;21.10;81.10;;;;;;5121101;27;45392;-64
2022/05/26 10:13:32;;;;;;;2.50;1.13;;;21.10;81.20;;;;;;5119374;27;45572;-64
2022/05/26 10:16:09;;;;;;;2.80;1.08;;;21.10;81.20;;;;;;5117760;27;45493;-64
2022/05/26 10:18:56;;;;;;;2.30;1.25;;;21.10;81.20;;;;;;5117767;27;45613;-64
2022/05/26 10:21:36;;;;;;;4.55;1.33;;;21.10;81.20;;;;;;5117969;27;45136;-64
2022/05/26 10:24:23;;;;;;;1.08;0.82;;;21.10;81.20;;;;;;5125124;27;45384;-64
2022/05/26 10:26:57;;;;;;;2.42;1.15;;;21.10;81.10;;;;;;5119329;27;47968;-64
2022/05/26 10:29:45;;;;;;;3.40;1.30;;;21.10;81.10;;;;;;5116719;27;45299;-64
2022/05/26 10:32:21;;;;;;;2.33;1.05;;;21.10;81.20;;;;;;5126398;27;45343;-64
2022/05/26 10:34:58;;;;;;;4.43;1.25;;;21.10;81.10;;;;;;5125654;27;45115;-64
2022/05/26 10:37:34;;;;;;;3.22;1.15;;;21.10;80.80;;;;;;5128188;27;45571;-64
2022/05/26 10:40:18;;;;;;;2.95;1.17;;;21.10;81.00;;;;;;5125529;27;45413;-64
2022/05/26 10:42:51;;;;;;;3.30;1.02;;;21.10;81.00;;;;;;5121339;27;45264;-65
2022/05/26 10:45:26;;;;;;;2.72;1.10;;;21.10;81.00;;;;;;5125469;27;45609;-64
2022/05/26 10:47:58;;;;;;;3.20;1.10;;;21.10;80.80;;;;;;5125412;27;46269;-64
2022/05/26 10:50:29;;;;;;;2.72;0.80;;;21.10;80.80;;;;;;5119299;27;45299;-64
2022/05/26 10:53:03;;;;;;;2.50;0.93;;;21.10;80.70;;;;;;5117638;27;46586;-64
2022/05/26 10:55:46;;;;;;;3.33;0.95;;;21.10;80.80;;;;;;5124260;27;45341;-64
2022/05/26 10:58:20;;;;;;;3.35;0.90;;;21.10;80.80;;;;;;5127171;27;45198;-64
2022/05/26 11:00:53;;;;;;;2.58;0.85;;;21.10;80.60;;;;;;5126312;27;45316;-64
2022/05/26 11:03:27;;;;;;;2.38;0.80;;;21.10;80.40;;;;;;5117390;27;45467;-64
2022/05/26 11:06:00;;;;;;;1.85;0.90;;;21.10;80.30;;;;;;5126612;27;45510;-64
2022/05/26 11:08:37;;;;;;;3.78;0.90;;;21.10;80.10;;;;;;5125654;27;45351;-64
2022/05/26 11:11:07;;;;;;;3.00;0.93;;;21.10;80.10;;;;;;5121340;27;45148;-64
2022/05/26 11:13:42;;;;;;;2.55;0.77;;;21.10;80.00;;;;;;5126972;27;45358;-64
2022/05/26 11:19:18;;;;;;;2.50;1.00;;;21.20;79.90;;;;;;5124537;27;45271;-64
2022/05/26 11:21:44;;;;;;;3.15;1.10;;;21.20;79.80;;;;;;5116016;27;45452;-64
2022/05/26 11:24:12;;;;;;;3.28;1.10;;;21.20;79.70;;;;;;5125760;27;45235;-64
2022/05/26 11:26:45;;;;;;;3.80;1.00;;;21.20;79.50;;;;;;5127256;27;45196;-64
2022/05/26 11:29:18;;;;;;;3.05;1.20;;;21.20;79.40;;;;;;5119859;27;46237;-64
2022/05/26 11:37:28;;;;;;;2.92;1.25;;;21.20;79.60;;;;;;5119506;27;45250;-64
2022/05/26 11:39:59;;;;;;;1.90;0.73;;;21.10;79.20;;;;;;5122685;27;47157;-64
2022/05/26 11:42:32;;;;;;;2.05;0.90;;;21.10;79.20;;;;;;5127661;27;45219;-64
2022/05/26 11:45:17;;;;;;;5.10;1.15;;;21.10;79.20;;;;;;5122610;27;45576;-64
2022/05/26 11:47:52;;;;;;;3.25;1.25;;;21.10;79.20;;;;;;5122962;27;45249;-64
2022/05/26 11:50:59;;;;;;;2.40;0.90;;;21.10;79.20;;;;;;5116992;27;46468;-64
2022/05/26 11:53:39;;;;;;;3.00;1.02;;;21.10;79.20;;;;;;5104593;27;45468;-65
2022/05/26 11:56:37;;;;;;;1.55;0.73;;;21.10;79.20;;;;;;5121297;27;45385;-65
2022/05/26 11:59:45;;;;;;;2.45;0.77;;;21.10;79.20;;;;;;5116012;27;45258;-65
2022/05/26 12:02:30;;;;;;;5.28;1.20;;;21.20;79.20;;;;;;5041358;28;47950;-65
2022/05/26 12:04:58;;;;;;;3.53;1.00;;;21.10;79.20;;;;;;5121282;27;45275;-64
2022/05/26 12:07:38;;;;;;;1.88;0.88;;;21.20;79.20;;;;;;5123818;27;45311;-64
2022/05/26 12:10:22;;;;;;;1.73;0.73;;;21.10;79.20;;;;;;5127984;27;46651;-64
2022/05/26 12:12:49;;;;;;;3.45;1.08;;;21.20;79.30;;;;;;5117889;27;47334;-64
2022/05/26 12:15:20;;;;;;;2.75;0.90;;;21.20;79.20;;;;;;5129810;27;45233;-64
2022/05/26 12:17:49;;;;;;;1.98;1.10;;;21.20;80.30;;;;;;5118679;27;45507;-64
2022/05/26 12:20:34;;;;;;;3.42;1.10;;;21.20;79.30;;;;;;5125943;27;45277;-64
2022/05/26 12:23:27;;;;;;;1.95;1.00;;;21.20;79.20;;;;;;5122824;27;46489;-64
2022/05/26 12:26:28;;;;;;;3.17;1.05;;;21.20;79.20;;;;;;5121384;27;45355;-64
2022/05/26 12:28:55;;;;;;;2.47;1.08;;;21.20;79.20;;;;;;5126128;27;45518;-64
2022/05/26 12:31:22;;;;;;;4.25;1.20;;;21.20;79.20;;;;;;5127005;27;45196;-64
2022/05/26 12:34:07;;;;;;;2.75;1.02;;;21.20;79.30;;;;;;5129012;27;47447;-64
2022/05/26 12:36:57;;;;;;;4.03;1.20;;;21.20;79.20;;;;;;5129454;27;45470;-65
2022/05/26 12:39:53;;;;;;;4.55;1.10;;;21.10;79.20;;;;;;5124426;27;45368;-64
2022/05/26 12:42:34;;;;;;;5.95;0.90;;;21.10;80.20;;;;;;5124283;27;45467;-64
2022/05/26 12:45:33;;;;;;;2.38;1.00;;;21.10;79.00;;;;;;5121586;27;47337;-64
2022/05/26 12:48:33;;;;;;;3.13;1.20;;;21.10;78.50;;;;;;5126394;27;45369;-64
2022/05/26 12:51:05;;;;;;;3.58;0.90;;;21.10;78.60;;;;;;5126296;27;45265;-64
2022/05/26 12:53:39;;;;;;;2.38;0.80;;;21.20;78.60;;;;;;5125589;27;45193;-64
2022/05/26 12:56:12;;;;;;;3.00;1.00;;;21.10;78.50;;;;;;5123759;27;45546;-64
2022/05/26 12:58:44;;;;;;;2.05;0.80;;;21.20;78.80;;;;;;5127222;27;45236;-64
2022/05/26 13:01:15;;;;;;;2.38;0.80;;;21.10;78.50;;;;;;5126919;27;46307;-64
2022/05/26 13:03:45;;;;;;;3.05;1.10;;;21.20;78.50;;;;;;5131926;27;45093;-65
2022/05/26 13:06:16;;;;;;;2.13;0.80;;;21.20;78.40;;;;;;5123083;27;45314;-64
2022/05/26 13:08:51;;;;;;;3.88;0.90;;;21.20;78.50;;;;;;5125585;27;45566;-64
2022/05/26 13:11:21;;;;;;;1.80;0.75;;;21.20;78.40;;;;;;5123226;27;45359;-62
2022/05/26 13:13:51;;;;;;;1.55;0.80;;;21.20;78.50;;;;;;5123588;27;45330;-64
2022/05/26 13:16:26;;;;;;;2.28;0.80;;;21.20;78.80;;;;;;5128019;27;48058;-64
2022/05/26 13:18:53;;;;;;;3.80;1.10;;;21.20;78.60;;;;;;5124151;27;45157;-64
2022/05/26 13:21:22;;;;;;;1.38;0.88;;;21.20;78.60;;;;;;5128683;27;45289;-64
2022/05/26 13:23:52;;;;;;;2.92;0.98;;;21.20;78.40;;;;;;5117357;27;45282;-65
2022/05/26 13:26:20;;;;;;;1.98;0.88;;;21.20;78.20;;;;;;5121959;27;46189;-64
2022/05/26 13:28:54;;;;;;;3.38;1.00;;;21.20;78.30;;;;;;5125710;27;45275;-64
2022/05/26 13:34:05;;;;;;;1.88;0.70;;;21.20;78.20;;;;;;5086650;27;45310;-64
2022/05/26 13:36:36;;;;;;;4.35;1.00;;;21.20;78.00;;;;;;5119157;27;45998;-62
2022/05/26 13:39:11;;;;;;;2.13;0.70;;;21.20;77.70;;;;;;5122206;27;45586;-64
2022/05/26 13:41:39;;;;;;;4.40;1.20;;;21.20;77.70;;;;;;5125136;27;45212;-64
2022/05/26 13:44:09;;;;;;;3.00;0.80;;;21.20;77.50;;;;;;5119608;27;45194;-64
2022/05/26 13:46:39;;;;;;;2.47;0.70;;;21.20;77.10;;;;;;5122036;27;45429;-64
2022/05/26 13:49:20;;;;;;;7.60;1.00;;;21.20;77.00;;;;;;5112211;27;46619;-64
2022/05/26 13:51:49;;;;;;;1.83;1.02;;;21.20;76.90;;;;;;5114275;27;45234;-64